sensor_id;sensor_type;location;lat;lon;timestamp;P1;durP1;ratioP1;P2;durP2;ratioP2
9188;SDS011;34313;50.780;6.084;2022-08-19T00:01:35;21.97;;;19.00;;
9188;SDS011;34313;50.780;6.084;2022-08-19T00:04:03;25.13;;;20.47;;
9188;SDS011;34313;50.780;6.084;2022-08-19T00:06:31;24.90;;;21.03;;
9188;SDS011;34313;50.780;6.084;2022-08-19T00:08:58;24.67;;;21.83;;
9188;SDS011;34313;50.780;6.084;2022-08-19T00:11:25;25.73;;;22.77;;
9188;SDS011;34313;50.780;6.084;2022-08-19T00:13:51;30.67;;;21.97;;
9188;SDS011;34313;50.780;6.084;2022-08-19T00:16:17;27.17;;;22.73;;
9188;SDS011;34313;50.780;6.084;2022-08-19T00:18:46;26.03;;;22.97;;
9188;SDS011;34313;50.780;6.084;2022-08-19T00:21:13;25.93;;;23.07;;
9188;SDS011;34313;50.780;6.084;2022-08-19T00:23:39;29.53;;;23.37;;
9188;SDS011;34313;50.780;6.084;2022-08-19T00:26:06;26.27;;;22.60;;
9188;SDS011;34313;50.780;6.084;2022-08-19T00:28:32;26.90;;;22.73;;
9188;SDS011;34313;50.780;6.084;2022-08-19T00:31:00;26.43;;;23.10;;
9188;SDS011;34313;50.780;6.084;2022-08-19T00:33:28;24.77;;;22.03;;
9188;SDS011;34313;50.780;6.084;2022-08-19T00:35:56;30.90;;;24.37;;
9188;SDS011;34313;50.780;6.084;2022-08-19T00:38:22;32.67;;;24.43;;
9188;SDS011;34313;50.780;6.084;2022-08-19T00:40:47;28.10;;;24.40;;
9188;SDS011;34313;50.780;6.084;2022-08-19T00:43:17;27.70;;;24.80;;
9188;SDS011;34313;50.780;6.084;2022-08-19T00:45:45;29.83;;;24.90;;
9188;SDS011;34313;50.780;6.084;2022-08-19T00:48:10;29.13;;;25.27;;
9188;SDS011;34313;50.780;6.084;2022-08-19T00:50:36;28.17;;;25.17;;
9188;SDS011;34313;50.780;6.084;2022-08-19T00:53:08;30.40;;;26.80;;
9188;SDS011;34313;50.780;6.084;2022-08-19T00:55:34;29.43;;;26.17;;
9188;SDS011;34313;50.780;6.084;2022-08-19T00:58:04;27.83;;;24.83;;
9188;SDS011;34313;50.780;6.084;2022-08-19T01:00:32;28.03;;;25.10;;
9188;SDS011;34313;50.780;6.084;2022-08-19T01:03:02;26.70;;;23.70;;
9188;SDS011;34313;50.780;6.084;2022-08-19T01:05:30;32.50;;;27.53;;
9188;SDS011;34313;50.780;6.084;2022-08-19T01:07:56;32.03;;;26.97;;
9188;SDS011;34313;50.780;6.084;2022-08-19T01:10:25;32.00;;;28.60;;
9188;SDS011;34313;50.780;6.084;2022-08-19T01:12:54;30.03;;;26.83;;
9188;SDS011;34313;50.780;6.084;2022-08-19T01:15:23;30.67;;;27.30;;
9188;SDS011;34313;50.780;6.084;2022-08-19T01:17:51;29.73;;;26.50;;
9188;SDS011;34313;50.780;6.084;2022-08-19T01:20:20;30.10;;;26.77;;
9188;SDS011;34313;50.780;6.084;2022-08-19T01:22:49;30.30;;;26.67;;
9188;SDS011;34313;50.780;6.084;2022-08-19T01:25:18;32.30;;;26.63;;
9188;SDS011;34313;50.780;6.084;2022-08-19T01:27:48;28.07;;;23.10;;
9188;SDS011;34313;50.780;6.084;2022-08-19T01:30:27;28.00;;;24.97;;
9188;SDS011;34313;50.780;6.084;2022-08-19T01:32:55;24.30;;;21.00;;
9188;SDS011;34313;50.780;6.084;2022-08-19T01:35:23;24.13;;;21.53;;
9188;SDS011;34313;50.780;6.084;2022-08-19T01:37:55;27.03;;;22.80;;
9188;SDS011;34313;50.780;6.084;2022-08-19T01:40:23;28.00;;;23.03;;
9188;SDS011;34313;50.780;6.084;2022-08-19T01:42:52;26.03;;;23.23;;
9188;SDS011;34313;50.780;6.084;2022-08-19T01:45:19;31.03;;;24.50;;
9188;SDS011;34313;50.780;6.084;2022-08-19T01:47:46;27.27;;;23.20;;
9188;SDS011;34313;50.780;6.084;2022-08-19T01:50:11;24.00;;;21.60;;
9188;SDS011;34313;50.780;6.084;2022-08-19T01:52:38;25.13;;;22.37;;
9188;SDS011;34313;50.780;6.084;2022-08-19T01:55:06;23.80;;;21.20;;
9188;SDS011;34313;50.780;6.084;2022-08-19T01:57:33;24.77;;;22.00;;
9188;SDS011;34313;50.780;6.084;2022-08-19T01:59:58;24.67;;;21.50;;
9188;SDS011;34313;50.780;6.084;2022-08-19T02:02:25;24.80;;;22.13;;
9188;SDS011;34313;50.780;6.084;2022-08-19T02:04:50;23.57;;;21.13;;
9188;SDS011;34313;50.780;6.084;2022-08-19T02:07:18;25.47;;;22.70;;
9188;SDS011;34313;50.780;6.084;2022-08-19T02:09:45;26.57;;;22.27;;
9188;SDS011;34313;50.780;6.084;2022-08-19T02:12:10;24.00;;;21.50;;
9188;SDS011;34313;50.780;6.084;2022-08-19T02:14:36;25.80;;;23.10;;
9188;SDS011;34313;50.780;6.084;2022-08-19T02:17:02;25.57;;;21.40;;
9188;SDS011;34313;50.780;6.084;2022-08-19T02:19:28;25.07;;;22.23;;
9188;SDS011;34313;50.780;6.084;2022-08-19T02:21:53;26.40;;;21.80;;
9188;SDS011;34313;50.780;6.084;2022-08-19T02:24:19;24.07;;;21.43;;
9188;SDS011;34313;50.780;6.084;2022-08-19T02:26:44;25.47;;;22.17;;
9188;SDS011;34313;50.780;6.084;2022-08-19T02:29:10;28.10;;;24.97;;
9188;SDS011;34313;50.780;6.084;2022-08-19T02:31:35;28.57;;;24.37;;
9188;SDS011;34313;50.780;6.084;2022-08-19T02:34:01;31.57;;;26.90;;
9188;SDS011;34313;50.780;6.084;2022-08-19T02:36:26;32.77;;;27.87;;
9188;SDS011;34313;50.780;6.084;2022-08-19T02:38:53;34.30;;;29.20;;
9188;SDS011;34313;50.780;6.084;2022-08-19T02:41:20;33.27;;;29.20;;
9188;SDS011;34313;50.780;6.084;2022-08-19T02:43:48;38.50;;;31.63;;
9188;SDS011;34313;50.780;6.084;2022-08-19T02:46:14;38.60;;;29.80;;
9188;SDS011;34313;50.780;6.084;2022-08-19T02:48:46;36.23;;;29.33;;
9188;SDS011;34313;50.780;6.084;2022-08-19T02:51:17;34.80;;;29.53;;
9188;SDS011;34313;50.780;6.084;2022-08-19T02:53:44;39.20;;;31.60;;
9188;SDS011;34313;50.780;6.084;2022-08-19T02:56:09;38.43;;;32.20;;
9188;SDS011;34313;50.780;6.084;2022-08-19T02:58:35;37.00;;;31.03;;
9188;SDS011;34313;50.780;6.084;2022-08-19T03:01:00;41.30;;;32.17;;
9188;SDS011;34313;50.780;6.084;2022-08-19T03:03:25;44.57;;;34.30;;
9188;SDS011;34313;50.780;6.084;2022-08-19T03:05:51;41.67;;;33.83;;
9188;SDS011;34313;50.780;6.084;2022-08-19T03:08:16;42.30;;;32.67;;
9188;SDS011;34313;50.780;6.084;2022-08-19T03:10:43;45.57;;;32.57;;
9188;SDS011;34313;50.780;6.084;2022-08-19T03:13:15;39.33;;;32.70;;
9188;SDS011;34313;50.780;6.084;2022-08-19T03:15:42;42.30;;;33.93;;
9188;SDS011;34313;50.780;6.084;2022-08-19T03:18:10;38.70;;;32.70;;
9188;SDS011;34313;50.780;6.084;2022-08-19T03:20:46;39.93;;;31.10;;
9188;SDS011;34313;50.780;6.084;2022-08-19T03:23:13;45.47;;;35.93;;
9188;SDS011;34313;50.780;6.084;2022-08-19T03:25:40;43.23;;;34.63;;
9188;SDS011;34313;50.780;6.084;2022-08-19T03:28:08;47.13;;;35.70;;
9188;SDS011;34313;50.780;6.084;2022-08-19T03:30:37;52.93;;;40.90;;
9188;SDS011;34313;50.780;6.084;2022-08-19T03:33:04;52.13;;;41.00;;
9188;SDS011;34313;50.780;6.084;2022-08-19T03:35:30;53.30;;;40.70;;
9188;SDS011;34313;50.780;6.084;2022-08-19T03:37:55;59.00;;;44.00;;
9188;SDS011;34313;50.780;6.084;2022-08-19T03:40:21;58.30;;;43.03;;
9188;SDS011;34313;50.780;6.084;2022-08-19T03:42:46;57.33;;;43.70;;
9188;SDS011;34313;50.780;6.084;2022-08-19T03:45:12;62.20;;;43.53;;
9188;SDS011;34313;50.780;6.084;2022-08-19T03:47:37;58.70;;;43.77;;
9188;SDS011;34313;50.780;6.084;2022-08-19T03:50:03;53.50;;;42.53;;
9188;SDS011;34313;50.780;6.084;2022-08-19T03:52:29;64.77;;;42.53;;
9188;SDS011;34313;50.780;6.084;2022-08-19T03:54:55;60.10;;;42.20;;
9188;SDS011;34313;50.780;6.084;2022-08-19T03:57:20;66.70;;;47.40;;
9188;SDS011;34313;50.780;6.084;2022-08-19T03:59:46;61.30;;;46.40;;
9188;SDS011;34313;50.780;6.084;2022-08-19T04:02:11;65.87;;;45.90;;
9188;SDS011;34313;50.780;6.084;2022-08-19T04:04:38;65.03;;;46.93;;
9188;SDS011;34313;50.780;6.084;2022-08-19T04:07:05;68.67;;;44.90;;
9188;SDS011;34313;50.780;6.084;2022-08-19T04:09:30;62.60;;;45.60;;
9188;SDS011;34313;50.780;6.084;2022-08-19T04:11:58;62.67;;;43.40;;
9188;SDS011;34313;50.780;6.084;2022-08-19T04:14:24;67.80;;;45.50;;
9188;SDS011;34313;50.780;6.084;2022-08-19T04:16:53;70.97;;;47.30;;
9188;SDS011;34313;50.780;6.084;2022-08-19T04:19:19;71.40;;;47.33;;
9188;SDS011;34313;50.780;6.084;2022-08-19T04:21:46;77.73;;;49.63;;
9188;SDS011;34313;50.780;6.084;2022-08-19T04:24:13;72.33;;;48.67;;
9188;SDS011;34313;50.780;6.084;2022-08-19T04:26:39;75.03;;;48.27;;
9188;SDS011;34313;50.780;6.084;2022-08-19T04:29:07;79.50;;;48.53;;
9188;SDS011;34313;50.780;6.084;2022-08-19T04:31:39;78.27;;;48.50;;
9188;SDS011;34313;50.780;6.084;2022-08-19T04:34:09;80.50;;;48.00;;
9188;SDS011;34313;50.780;6.084;2022-08-19T04:36:36;79.20;;;48.57;;
9188;SDS011;34313;50.780;6.084;2022-08-19T04:39:07;86.37;;;51.10;;
9188;SDS011;34313;50.780;6.084;2022-08-19T04:41:35;84.67;;;49.57;;
9188;SDS011;34313;50.780;6.084;2022-08-19T04:44:20;78.80;;;50.03;;
9188;SDS011;34313;50.780;6.084;2022-08-19T04:46:47;89.23;;;50.23;;
9188;SDS011;34313;50.780;6.084;2022-08-19T04:49:14;90.37;;;51.83;;
9188;SDS011;34313;50.780;6.084;2022-08-19T04:51:42;89.93;;;52.90;;
9188;SDS011;34313;50.780;6.084;2022-08-19T04:54:09;86.77;;;49.97;;
9188;SDS011;34313;50.780;6.084;2022-08-19T04:56:34;95.33;;;51.07;;
9188;SDS011;34313;50.780;6.084;2022-08-19T04:59:00;88.50;;;50.80;;
9188;SDS011;34313;50.780;6.084;2022-08-19T05:01:29;86.87;;;50.53;;
9188;SDS011;34313;50.780;6.084;2022-08-19T05:03:58;91.43;;;52.00;;
9188;SDS011;34313;50.780;6.084;2022-08-19T05:06:25;93.37;;;51.30;;
9188;SDS011;34313;50.780;6.084;2022-08-19T05:08:51;87.13;;;50.20;;
9188;SDS011;34313;50.780;6.084;2022-08-19T05:13:45;91.37;;;51.10;;
9188;SDS011;34313;50.780;6.084;2022-08-19T05:16:12;92.57;;;52.00;;
9188;SDS011;34313;50.780;6.084;2022-08-19T05:18:38;95.40;;;50.67;;
9188;SDS011;34313;50.780;6.084;2022-08-19T05:21:23;89.07;;;50.53;;
9188;SDS011;34313;50.780;6.084;2022-08-19T05:24:08;86.17;;;50.87;;
9188;SDS011;34313;50.780;6.084;2022-08-19T05:26:44;93.57;;;51.60;;
9188;SDS011;34313;50.780;6.084;2022-08-19T05:29:12;82.90;;;49.10;;
9188;SDS011;34313;50.780;6.084;2022-08-19T05:31:39;87.90;;;49.37;;
9188;SDS011;34313;50.780;6.084;2022-08-19T05:34:04;76.80;;;45.93;;
9188;SDS011;34313;50.780;6.084;2022-08-19T05:36:33;82.77;;;49.00;;
9188;SDS011;34313;50.780;6.084;2022-08-19T05:39:07;74.67;;;45.80;;
9188;SDS011;34313;50.780;6.084;2022-08-19T05:41:33;73.97;;;44.73;;
9188;SDS011;34313;50.780;6.084;2022-08-19T05:44:01;72.07;;;44.27;;
9188;SDS011;34313;50.780;6.084;2022-08-19T05:46:28;61.93;;;42.27;;
9188;SDS011;34313;50.780;6.084;2022-08-19T05:48:53;63.03;;;41.63;;
9188;SDS011;34313;50.780;6.084;2022-08-19T05:51:21;59.20;;;39.40;;
9188;SDS011;34313;50.780;6.084;2022-08-19T05:53:47;61.10;;;41.17;;
9188;SDS011;34313;50.780;6.084;2022-08-19T05:56:14;55.17;;;38.67;;
9188;SDS011;34313;50.780;6.084;2022-08-19T05:58:41;52.93;;;37.87;;
9188;SDS011;34313;50.780;6.084;2022-08-19T06:01:25;46.80;;;35.60;;
9188;SDS011;34313;50.780;6.084;2022-08-19T06:03:51;51.43;;;35.23;;
9188;SDS011;34313;50.780;6.084;2022-08-19T06:06:17;46.83;;;32.47;;
9188;SDS011;34313;50.780;6.084;2022-08-19T06:08:43;42.97;;;32.00;;
9188;SDS011;34313;50.780;6.084;2022-08-19T06:13:44;35.00;;;26.57;;
9188;SDS011;34313;50.780;6.084;2022-08-19T06:16:12;35.23;;;26.77;;
9188;SDS011;34313;50.780;6.084;2022-08-19T06:18:38;36.90;;;26.70;;
9188;SDS011;34313;50.780;6.084;2022-08-19T06:21:03;36.77;;;27.10;;
9188;SDS011;34313;50.780;6.084;2022-08-19T06:23:29;34.70;;;24.30;;
9188;SDS011;34313;50.780;6.084;2022-08-19T06:25:55;35.50;;;27.30;;
9188;SDS011;34313;50.780;6.084;2022-08-19T06:28:21;33.83;;;25.60;;
9188;SDS011;34313;50.780;6.084;2022-08-19T06:30:47;38.17;;;27.53;;
9188;SDS011;34313;50.780;6.084;2022-08-19T06:33:13;34.27;;;26.20;;
9188;SDS011;34313;50.780;6.084;2022-08-19T06:35:39;36.87;;;26.00;;
9188;SDS011;34313;50.780;6.084;2022-08-19T06:38:05;34.77;;;26.63;;
9188;SDS011;34313;50.780;6.084;2022-08-19T06:40:30;37.77;;;27.50;;
9188;SDS011;34313;50.780;6.084;2022-08-19T06:42:56;39.47;;;27.67;;
9188;SDS011;34313;50.780;6.084;2022-08-19T06:45:23;33.50;;;23.70;;
9188;SDS011;34313;50.780;6.084;2022-08-19T06:47:49;37.37;;;25.07;;
9188;SDS011;34313;50.780;6.084;2022-08-19T06:50:14;31.83;;;23.90;;
9188;SDS011;34313;50.780;6.084;2022-08-19T06:52:40;36.37;;;22.60;;
9188;SDS011;34313;50.780;6.084;2022-08-19T06:55:05;25.10;;;20.60;;
9188;SDS011;34313;50.780;6.084;2022-08-19T06:57:31;34.93;;;22.03;;
9188;SDS011;34313;50.780;6.084;2022-08-19T06:59:57;24.73;;;17.97;;
9188;SDS011;34313;50.780;6.084;2022-08-19T07:02:25;23.07;;;18.37;;
9188;SDS011;34313;50.780;6.084;2022-08-19T07:04:51;23.40;;;15.37;;
9188;SDS011;34313;50.780;6.084;2022-08-19T07:07:17;27.90;;;18.43;;
9188;SDS011;34313;50.780;6.084;2022-08-19T07:09:44;29.07;;;21.63;;
9188;SDS011;34313;50.780;6.084;2022-08-19T07:12:10;29.43;;;21.50;;
9188;SDS011;34313;50.780;6.084;2022-08-19T07:14:38;32.03;;;22.00;;
9188;SDS011;34313;50.780;6.084;2022-08-19T07:17:05;35.87;;;25.17;;
9188;SDS011;34313;50.780;6.084;2022-08-19T07:19:33;33.53;;;25.20;;
9188;SDS011;34313;50.780;6.084;2022-08-19T07:22:00;31.77;;;23.37;;
9188;SDS011;34313;50.780;6.084;2022-08-19T07:24:27;32.93;;;25.03;;
9188;SDS011;34313;50.780;6.084;2022-08-19T07:26:55;41.40;;;25.70;;
9188;SDS011;34313;50.780;6.084;2022-08-19T07:29:25;35.10;;;27.13;;
9188;SDS011;34313;50.780;6.084;2022-08-19T07:31:52;38.63;;;27.10;;
9188;SDS011;34313;50.780;6.084;2022-08-19T07:34:21;45.00;;;31.20;;
9188;SDS011;34313;50.780;6.084;2022-08-19T07:36:47;46.07;;;33.40;;
9188;SDS011;34313;50.780;6.084;2022-08-19T07:39:18;39.33;;;31.87;;
9188;SDS011;34313;50.780;6.084;2022-08-19T07:41:45;50.13;;;32.93;;
9188;SDS011;34313;50.780;6.084;2022-08-19T07:44:12;41.43;;;32.40;;
9188;SDS011;34313;50.780;6.084;2022-08-19T07:46:40;44.00;;;30.93;;
9188;SDS011;34313;50.780;6.084;2022-08-19T07:49:09;42.30;;;30.70;;
9188;SDS011;34313;50.780;6.084;2022-08-19T07:51:39;46.10;;;33.13;;
9188;SDS011;34313;50.780;6.084;2022-08-19T07:54:05;36.27;;;29.03;;
9188;SDS011;34313;50.780;6.084;2022-08-19T07:56:30;45.80;;;30.73;;
9188;SDS011;34313;50.780;6.084;2022-08-19T07:58:56;42.73;;;28.03;;
9188;SDS011;34313;50.780;6.084;2022-08-19T08:01:23;33.90;;;27.70;;
9188;SDS011;34313;50.780;6.084;2022-08-19T08:03:51;33.63;;;23.57;;
9188;SDS011;34313;50.780;6.084;2022-08-19T08:06:36;27.40;;;23.93;;
9188;SDS011;34313;50.780;6.084;2022-08-19T08:09:23;32.27;;;25.13;;
9188;SDS011;34313;50.780;6.084;2022-08-19T08:11:53;37.50;;;28.15;;
9188;SDS011;34313;50.780;6.084;2022-08-19T08:14:30;31.17;;;25.60;;
9188;SDS011;34313;50.780;6.084;2022-08-19T08:17:00;28.93;;;22.23;;
9188;SDS011;34313;50.780;6.084;2022-08-19T08:19:26;34.80;;;26.60;;
9188;SDS011;34313;50.780;6.084;2022-08-19T08:21:53;25.80;;;21.83;;
9188;SDS011;34313;50.780;6.084;2022-08-19T08:24:20;30.02;;;25.27;;
9188;SDS011;34313;50.780;6.084;2022-08-19T08:26:46;31.05;;;25.30;;
9188;SDS011;34313;50.780;6.084;2022-08-19T08:29:12;30.10;;;22.98;;
9188;SDS011;34313;50.780;6.084;2022-08-19T08:31:41;32.67;;;23.42;;
9188;SDS011;34313;50.780;6.084;2022-08-19T08:34:09;33.35;;;29.70;;
9188;SDS011;34313;50.780;6.084;2022-08-19T08:36:36;27.02;;;22.92;;
9188;SDS011;34313;50.780;6.084;2022-08-19T08:39:06;37.10;;;29.30;;
9188;SDS011;34313;50.780;6.084;2022-08-19T08:41:38;31.00;;;27.65;;
9188;SDS011;34313;50.780;6.084;2022-08-19T08:44:12;33.63;;;29.83;;
9188;SDS011;34313;50.780;6.084;2022-08-19T08:46:42;35.83;;;30.73;;
9188;SDS011;34313;50.780;6.084;2022-08-19T08:52:07;34.05;;;28.95;;
9188;SDS011;34313;50.780;6.084;2022-08-19T08:54:45;147.88;;;38.65;;
9188;SDS011;34313;50.780;6.084;2022-08-19T09:00:00;39.73;;;29.00;;
9188;SDS011;34313;50.780;6.084;2022-08-19T09:02:30;29.40;;;25.02;;
9188;SDS011;34313;50.780;6.084;2022-08-19T09:04:56;34.97;;;28.23;;
9188;SDS011;34313;50.780;6.084;2022-08-19T09:13:05;27.10;;;23.85;;
9188;SDS011;34313;50.780;6.084;2022-08-19T09:15:48;104.28;;;35.15;;
9188;SDS011;34313;50.780;6.084;2022-08-19T09:18:23;37.13;;;27.70;;
9188;SDS011;34313;50.780;6.084;2022-08-19T09:20:49;30.23;;;25.63;;
9188;SDS011;34313;50.780;6.084;2022-08-19T09:23:14;38.85;;;27.17;;
9188;SDS011;34313;50.780;6.084;2022-08-19T09:25:40;30.52;;;23.25;;
9188;SDS011;34313;50.780;6.084;2022-08-19T09:28:05;29.95;;;23.20;;
9188;SDS011;34313;50.780;6.084;2022-08-19T09:30:32;25.55;;;21.30;;
9188;SDS011;34313;50.780;6.084;2022-08-19T09:33:00;25.77;;;20.13;;
9188;SDS011;34313;50.780;6.084;2022-08-19T09:35:27;31.50;;;25.95;;
9188;SDS011;34313;50.780;6.084;2022-08-19T09:37:54;32.20;;;24.55;;
9188;SDS011;34313;50.780;6.084;2022-08-19T09:40:22;32.45;;;23.83;;
9188;SDS011;34313;50.780;6.084;2022-08-19T09:42:47;25.50;;;20.63;;
9188;SDS011;34313;50.780;6.084;2022-08-19T09:45:13;65.75;;;27.80;;
9188;SDS011;34313;50.780;6.084;2022-08-19T09:47:39;37.83;;;23.90;;
9188;SDS011;34313;50.780;6.084;2022-08-19T09:50:09;37.70;;;25.77;;
9188;SDS011;34313;50.780;6.084;2022-08-19T09:52:36;27.25;;;21.50;;
9188;SDS011;34313;50.780;6.084;2022-08-19T09:55:06;34.97;;;26.25;;
9188;SDS011;34313;50.780;6.084;2022-08-19T09:57:33;29.92;;;23.60;;
9188;SDS011;34313;50.780;6.084;2022-08-19T09:59:58;31.35;;;24.98;;
9188;SDS011;34313;50.780;6.084;2022-08-19T10:02:24;32.50;;;22.58;;
9188;SDS011;34313;50.780;6.084;2022-08-19T10:04:50;31.90;;;24.35;;
9188;SDS011;34313;50.780;6.084;2022-08-19T10:07:34;25.33;;;21.30;;
9188;SDS011;34313;50.780;6.084;2022-08-19T10:10:00;26.95;;;20.77;;
9188;SDS011;34313;50.780;6.084;2022-08-19T10:12:26;27.47;;;22.57;;
9188;SDS011;34313;50.780;6.084;2022-08-19T10:14:51;32.33;;;25.23;;
9188;SDS011;34313;50.780;6.084;2022-08-19T10:17:18;34.40;;;27.07;;
9188;SDS011;34313;50.780;6.084;2022-08-19T10:19:43;32.80;;;24.30;;
9188;SDS011;34313;50.780;6.084;2022-08-19T10:22:09;31.23;;;24.57;;
9188;SDS011;34313;50.780;6.084;2022-08-19T10:24:39;31.03;;;24.33;;
9188;SDS011;34313;50.780;6.084;2022-08-19T10:27:04;30.97;;;24.60;;
9188;SDS011;34313;50.780;6.084;2022-08-19T10:29:30;24.80;;;19.70;;
9188;SDS011;34313;50.780;6.084;2022-08-19T10:31:57;30.60;;;22.30;;
9188;SDS011;34313;50.780;6.084;2022-08-19T10:34:23;29.47;;;22.07;;
9188;SDS011;34313;50.780;6.084;2022-08-19T10:36:49;25.70;;;20.17;;
9188;SDS011;34313;50.780;6.084;2022-08-19T10:39:16;29.80;;;22.00;;
9188;SDS011;34313;50.780;6.084;2022-08-19T10:41:41;30.80;;;22.70;;
9188;SDS011;34313;50.780;6.084;2022-08-19T10:44:09;25.87;;;20.20;;
9188;SDS011;34313;50.780;6.084;2022-08-19T10:46:38;25.57;;;20.07;;
9188;SDS011;34313;50.780;6.084;2022-08-19T10:49:07;31.73;;;20.40;;
9188;SDS011;34313;50.780;6.084;2022-08-19T10:51:34;26.17;;;18.87;;
9188;SDS011;34313;50.780;6.084;2022-08-19T10:54:19;23.83;;;18.33;;
9188;SDS011;34313;50.780;6.084;2022-08-19T10:56:45;32.10;;;18.27;;
9188;SDS011;34313;50.780;6.084;2022-08-19T10:59:24;24.83;;;17.87;;
9188;SDS011;34313;50.780;6.084;2022-08-19T11:01:53;30.33;;;19.70;;
9188;SDS011;34313;50.780;6.084;2022-08-19T11:04:20;24.00;;;18.43;;
9188;SDS011;34313;50.780;6.084;2022-08-19T11:06:47;25.03;;;18.73;;
9188;SDS011;34313;50.780;6.084;2022-08-19T11:09:15;26.00;;;16.37;;
9188;SDS011;34313;50.780;6.084;2022-08-19T11:11:45;23.37;;;17.83;;
9188;SDS011;34313;50.780;6.084;2022-08-19T11:14:13;29.50;;;19.33;;
9188;SDS011;34313;50.780;6.084;2022-08-19T11:16:40;28.47;;;21.00;;
9188;SDS011;34313;50.780;6.084;2022-08-19T11:19:07;22.57;;;18.27;;
9188;SDS011;34313;50.780;6.084;2022-08-19T11:21:35;31.00;;;22.33;;
9188;SDS011;34313;50.780;6.084;2022-08-19T11:24:07;25.47;;;19.00;;
9188;SDS011;34313;50.780;6.084;2022-08-19T11:26:35;29.40;;;18.83;;
9188;SDS011;34313;50.780;6.084;2022-08-19T11:29:02;23.67;;;17.97;;
9188;SDS011;34313;50.780;6.084;2022-08-19T11:31:29;30.30;;;22.70;;
9188;SDS011;34313;50.780;6.084;2022-08-19T11:33:57;37.17;;;23.90;;
9188;SDS011;34313;50.780;6.084;2022-08-19T11:36:24;29.03;;;24.20;;
9188;SDS011;34313;50.780;6.084;2022-08-19T11:38:51;26.53;;;20.20;;
9188;SDS011;34313;50.780;6.084;2022-08-19T11:41:18;25.90;;;20.80;;
9188;SDS011;34313;50.780;6.084;2022-08-19T11:43:45;26.70;;;20.27;;
9188;SDS011;34313;50.780;6.084;2022-08-19T11:46:12;30.00;;;21.43;;
9188;SDS011;34313;50.780;6.084;2022-08-19T11:48:40;25.83;;;18.70;;
9188;SDS011;34313;50.780;6.084;2022-08-19T11:51:10;29.93;;;20.27;;
9188;SDS011;34313;50.780;6.084;2022-08-19T11:53:37;31.70;;;21.40;;
9188;SDS011;34313;50.780;6.084;2022-08-19T11:56:04;23.60;;;18.63;;
9188;SDS011;34313;50.780;6.084;2022-08-19T11:58:30;24.80;;;18.67;;
9188;SDS011;34313;50.780;6.084;2022-08-19T12:00:56;26.60;;;19.07;;
9188;SDS011;34313;50.780;6.084;2022-08-19T12:03:22;26.53;;;18.73;;
9188;SDS011;34313;50.780;6.084;2022-08-19T12:05:48;24.00;;;18.63;;
9188;SDS011;34313;50.780;6.084;2022-08-19T12:08:14;20.57;;;14.50;;
9188;SDS011;34313;50.780;6.084;2022-08-19T12:10:40;15.93;;;11.93;;
9188;SDS011;34313;50.780;6.084;2022-08-19T12:13:10;18.50;;;10.27;;
9188;SDS011;34313;50.780;6.084;2022-08-19T12:15:40;11.77;;;8.80;;
9188;SDS011;34313;50.780;6.084;2022-08-19T12:18:06;14.53;;;8.80;;
9188;SDS011;34313;50.780;6.084;2022-08-19T12:20:36;15.87;;;9.47;;
9188;SDS011;34313;50.780;6.084;2022-08-19T12:23:05;12.20;;;8.63;;
9188;SDS011;34313;50.780;6.084;2022-08-19T12:25:32;11.07;;;8.50;;
9188;SDS011;34313;50.780;6.084;2022-08-19T12:27:59;12.77;;;8.73;;
9188;SDS011;34313;50.780;6.084;2022-08-19T12:30:24;14.33;;;8.20;;
9188;SDS011;34313;50.780;6.084;2022-08-19T12:32:50;10.63;;;6.93;;
9188;SDS011;34313;50.780;6.084;2022-08-19T12:35:16;6.70;;;5.90;;
9188;SDS011;34313;50.780;6.084;2022-08-19T12:37:44;6.77;;;5.43;;
9188;SDS011;34313;50.780;6.084;2022-08-19T12:40:11;8.73;;;6.90;;
9188;SDS011;34313;50.780;6.084;2022-08-19T12:42:37;10.17;;;6.43;;
9188;SDS011;34313;50.780;6.084;2022-08-19T12:45:07;9.13;;;5.30;;
9188;SDS011;34313;50.780;6.084;2022-08-19T12:47:38;10.30;;;4.90;;
9188;SDS011;34313;50.780;6.084;2022-08-19T12:50:04;13.10;;;5.10;;
9188;SDS011;34313;50.780;6.084;2022-08-19T12:52:31;7.60;;;4.33;;
9188;SDS011;34313;50.780;6.084;2022-08-19T12:54:57;6.13;;;4.50;;
9188;SDS011;34313;50.780;6.084;2022-08-19T12:57:23;5.97;;;3.77;;
9188;SDS011;34313;50.780;6.084;2022-08-19T12:59:53;11.23;;;3.93;;
9188;SDS011;34313;50.780;6.084;2022-08-19T13:02:19;8.80;;;5.03;;
9188;SDS011;34313;50.780;6.084;2022-08-19T13:04:45;8.23;;;4.47;;
9188;SDS011;34313;50.780;6.084;2022-08-19T13:07:10;6.43;;;4.10;;
9188;SDS011;34313;50.780;6.084;2022-08-19T13:09:35;7.70;;;4.60;;
9188;SDS011;34313;50.780;6.084;2022-08-19T13:12:02;6.20;;;3.80;;
9188;SDS011;34313;50.780;6.084;2022-08-19T13:14:28;5.30;;;3.00;;
9188;SDS011;34313;50.780;6.084;2022-08-19T13:16:55;11.30;;;3.27;;
9188;SDS011;34313;50.780;6.084;2022-08-19T13:19:22;6.27;;;3.33;;
9188;SDS011;34313;50.780;6.084;2022-08-19T13:21:51;4.60;;;3.33;;
9188;SDS011;34313;50.780;6.084;2022-08-19T13:24:20;4.50;;;3.20;;
9188;SDS011;34313;50.780;6.084;2022-08-19T13:26:45;6.17;;;3.60;;
9188;SDS011;34313;50.780;6.084;2022-08-19T13:29:11;3.73;;;3.33;;
9188;SDS011;34313;50.780;6.084;2022-08-19T13:31:54;4.03;;;2.70;;
9188;SDS011;34313;50.780;6.084;2022-08-19T13:34:38;9.97;;;2.80;;
9188;SDS011;34313;50.780;6.084;2022-08-19T13:37:04;3.07;;;2.30;;
9188;SDS011;34313;50.780;6.084;2022-08-19T13:39:31;11.23;;;2.53;;
9188;SDS011;34313;50.780;6.084;2022-08-19T13:41:57;2.93;;;2.10;;
9188;SDS011;34313;50.780;6.084;2022-08-19T13:44:25;4.73;;;3.23;;
9188;SDS011;34313;50.780;6.084;2022-08-19T13:46:54;2.63;;;2.40;;
9188;SDS011;34313;50.780;6.084;2022-08-19T13:49:20;2.33;;;2.13;;
9188;SDS011;34313;50.780;6.084;2022-08-19T13:51:46;3.37;;;2.00;;
9188;SDS011;34313;50.780;6.084;2022-08-19T13:54:12;4.63;;;2.80;;
9188;SDS011;34313;50.780;6.084;2022-08-19T13:56:42;4.87;;;2.40;;
9188;SDS011;34313;50.780;6.084;2022-08-19T13:59:09;4.70;;;2.50;;
9188;SDS011;34313;50.780;6.084;2022-08-19T14:01:34;2.83;;;2.00;;
9188;SDS011;34313;50.780;6.084;2022-08-19T14:04:00;5.97;;;2.33;;
9188;SDS011;34313;50.780;6.084;2022-08-19T14:06:26;3.10;;;2.20;;
9188;SDS011;34313;50.780;6.084;2022-08-19T14:08:52;4.20;;;2.60;;
9188;SDS011;34313;50.780;6.084;2022-08-19T14:11:17;4.00;;;3.03;;
9188;SDS011;34313;50.780;6.084;2022-08-19T14:13:43;4.33;;;3.00;;
9188;SDS011;34313;50.780;6.084;2022-08-19T14:16:09;4.60;;;2.90;;
9188;SDS011;34313;50.780;6.084;2022-08-19T14:18:36;4.77;;;2.80;;
9188;SDS011;34313;50.780;6.084;2022-08-19T14:21:02;4.50;;;3.00;;
9188;SDS011;34313;50.780;6.084;2022-08-19T14:23:29;4.50;;;2.83;;
9188;SDS011;34313;50.780;6.084;2022-08-19T14:26:02;4.13;;;3.43;;
9188;SDS011;34313;50.780;6.084;2022-08-19T14:28:32;3.30;;;3.00;;
9188;SDS011;34313;50.780;6.084;2022-08-19T14:30:58;5.07;;;2.90;;
9188;SDS011;34313;50.780;6.084;2022-08-19T14:33:23;4.83;;;2.80;;
9188;SDS011;34313;50.780;6.084;2022-08-19T14:35:49;6.50;;;3.70;;
9188;SDS011;34313;50.780;6.084;2022-08-19T14:38:17;5.07;;;3.77;;
9188;SDS011;34313;50.780;6.084;2022-08-19T14:40:43;4.40;;;3.77;;
9188;SDS011;34313;50.780;6.084;2022-08-19T14:43:09;4.27;;;3.07;;
9188;SDS011;34313;50.780;6.084;2022-08-19T14:45:36;5.90;;;2.83;;
9188;SDS011;34313;50.780;6.084;2022-08-19T14:48:03;3.97;;;3.17;;
9188;SDS011;34313;50.780;6.084;2022-08-19T14:50:30;6.90;;;3.40;;
9188;SDS011;34313;50.780;6.084;2022-08-19T14:53:00;3.80;;;3.10;;
9188;SDS011;34313;50.780;6.084;2022-08-19T14:55:28;3.40;;;2.80;;
9188;SDS011;34313;50.780;6.084;2022-08-19T14:57:54;6.07;;;3.23;;